Airfield :
LOGIN :

Register | Disclaimer

   EN    FR    IT 

 










Legend :    VFR   Marginal VFR   IFR   Intensive IFR   Very Intensive IFR
Visi :
Ceiling :
>= 8 km
>= 3000ft
5 to 8 km
1000 to 3000 ft
1500m to 5 km
500 to 1000 ft
800 to 1500m
200 to 500 ft
< 800m
< 200 ft
Symbols :   Thunderstorms  Fog  Heavy snow  Heavy precipitations  Wind > 20 kt
SIGMETs :     Misc.  Thunderstorms  Icing  Turbulence  Mountain Waves  Volcanic Ashes






- Airport Elevation : 100 ft


EBDT - Schaffen

CURRENT METAR :
  • 270755Z AUTO 18009KT 9000 -DZ FEW011/// BKN060/// BKN080/// 03/01 Q1001 BLU

EXPIRED METARs :
  • 270725Z AUTO 18008KT 9999 -RA FEW012/// SCT037/// BKN044/// 03/01 Q1001 BLU
  • 270655Z AUTO 19009KT 9999 FEW039/// BKN075/// OVC095/// 03/01 Q1002 BLU
  • 270625Z AUTO 17007KT 9999 SCT100/// OVC110/// 02/01 Q1002 BLU
  • 270555Z AUTO 17007KT 9999 FEW049/// BKN110/// 02/01 Q1003 BLU
  • 270525Z AUTO 18007KT 9999 SCT060/// BKN075/// BKN090/// 02/01 Q1003 BLU

Expired Forecast.



MET'MAP, your aeronautical weather chart ! - Copyright ORBIFLY December 2007 - Disclaimer

ORBIFLY MET'MAP TEAM :

Programming & Development : Alexandra Zaïnal
Concept & original design : Baudouin d'Aumeries
Assistance for programming : Marc-Olivier Méhu
Technical & hardware support : Manuel Goepfert

Contact : metmap@orbifly.com




SOURCES & CREDITS :

   NOAA